Flight Track Log - Related Links

Times and Time Zones

All times are in EDT time to prevent confusion due to time zone crossing. See the N407CD flight status page for this flight to view local times or setup timezone preferences in your user account.

Time Position Orientation Groundspeed Altitude Reporting Facility
EDT Latitude Longitude Course Direction KTS MPH feet Rate Location/Type
Sun 04:10:00 PM 41.8312 -70.3267 300° West  Level FlightAware Approximate
Sun 04:11:00 PM 41.8553 -70.3827 300° West  Level Estimated
Sun 04:12:00 PM 41.8792 -70.4389 300° West  Level FlightAware Approximate
Sun 04:13:00 PM 41.9030 -70.4951 300° West  Level FlightAware Approximate
Sun 04:14:00 PM 41.9269 -70.5514 300° West  Level FlightAware Approximate
Sun 04:15:00 PM 41.9509 -70.6075 304° West  Level Estimated
Sun 04:16:00 PM 41.9750 -70.6637 300° West  Level Estimated
Sun 04:16:09 PM 41.8833 -70.5167 294° West 141 162 4,100  Level KA90
Sun 04:17:00 PM 41.9994 -70.7196 300° West  Level FlightAware Approximate
Sun 04:18:00 PM 41.9332 -70.6160 304° West  Level FlightAware Approximate
Sun 04:18:00 PM 42.0238 -70.7756 300° West  Level FlightAware Approximate
Sun 04:19:00 PM 42.0476 -70.8320 294° West  Level Estimated
Sun 04:20:00 PM 42.0714 -70.8884 294° West  Level Estimated
Sun 04:21:00 PM 42.0951 -70.9449 294° West  Level Estimated
Sun 04:25:00 PM 42.1117 -71.0013 294° West  Level Estimated
Sun 04:26:00 PM 42.1371 -71.0565 294° West  Level Estimated
Sun 04:27:00 PM 42.1625 -71.1118 294° West  Level Estimated
Sun 04:28:00 PM 42.1833 -71.1667 294° West  Level FlightAware Approximate
Sun 04:29:00 PM 42.1905 -71.1729 294° West  Level Estimated
Sun 04:30:00 PM 42.1905 -71.1729 294° West  Level Estimated
Sun 04:31:00 PM 42.1905 -71.1729 294° West  Level Estimated
Sun 04:32:00 PM 42.1905 -71.1729 294° West  Level Estimated
Sun 04:33:00 PM 42.1905 -71.1729 294° West  Level Estimated
Sun 04:34:00 PM 42.1905 -71.1729 294° West  Level Estimated
Sun 04:35:00 PM 42.1905 -71.1729 294° West  Level Estimated
Sun 04:36:00 PM 42.1905 -71.1729 294° West  Level Estimated
Sun 04:37:00 PM 42.1905 -71.1729 294° West  Level Estimated
Sun 04:38:00 PM 42.1905 -71.1729 294° West  Level Estimated
Sun 04:39:00 PM 42.1905 -71.1729 294° West  Level Estimated
Sun 04:40:00 PM 42.1905 -71.1729 294° West  Level Estimated
Sun 04:41:00 PM 42.1905 -71.1729 294° West  Level Estimated

Login

Don't have an account? Register now (free) for customized features, flight alerts, and more!